sensor_id;sensor_type;location;lat;lon;timestamp;temperature;humidity
6662;DHT22;3367;48.714;8.994;2023-10-13T00:00:40;17.00;1.00
6662;DHT22;3367;48.714;8.994;2023-10-13T00:03:07;16.90;1.00
6662;DHT22;3367;48.714;8.994;2023-10-13T00:05:40;16.90;1.00
6662;DHT22;3367;48.714;8.994;2023-10-13T00:08:08;16.80;1.00
6662;DHT22;3367;48.714;8.994;2023-10-13T00:10:36;16.70;1.00
6662;DHT22;3367;48.714;8.994;2023-10-13T00:13:03;16.70;1.00
6662;DHT22;3367;48.714;8.994;2023-10-13T00:15:40;16.50;1.00
6662;DHT22;3367;48.714;8.994;2023-10-13T00:18:11;16.40;1.00
6662;DHT22;3367;48.714;8.994;2023-10-13T00:20:40;16.30;1.00
6662;DHT22;3367;48.714;8.994;2023-10-13T00:23:13;16.20;1.00
6662;DHT22;3367;48.714;8.994;2023-10-13T00:25:40;16.00;1.00
6662;DHT22;3367;48.714;8.994;2023-10-13T00:28:15;16.00;1.00
6662;DHT22;3367;48.714;8.994;2023-10-13T00:30:50;15.80;1.00
6662;DHT22;3367;48.714;8.994;2023-10-13T00:33:18;15.70;1.00
6662;DHT22;3367;48.714;8.994;2023-10-13T00:35:45;15.70;1.00
6662;DHT22;3367;48.714;8.994;2023-10-13T00:38:13;15.60;1.00
6662;DHT22;3367;48.714;8.994;2023-10-13T00:40:40;15.50;1.00
6662;DHT22;3367;48.714;8.994;2023-10-13T00:43:08;15.50;1.00
6662;DHT22;3367;48.714;8.994;2023-10-13T00:46:01;15.40;1.00
6662;DHT22;3367;48.714;8.994;2023-10-13T00:48:40;15.40;1.00
6662;DHT22;3367;48.714;8.994;2023-10-13T00:51:17;15.30;1.00
6662;DHT22;3367;48.714;8.994;2023-10-13T00:53:57;15.20;1.00
6662;DHT22;3367;48.714;8.994;2023-10-13T00:56:24;15.20;1.00
6662;DHT22;3367;48.714;8.994;2023-10-13T00:58:53;15.10;1.00
6662;DHT22;3367;48.714;8.994;2023-10-13T01:01:24;15.00;1.00
6662;DHT22;3367;48.714;8.994;2023-10-13T01:03:55;15.00;1.00
6662;DHT22;3367;48.714;8.994;2023-10-13T01:06:25;14.90;1.00
6662;DHT22;3367;48.714;8.994;2023-10-13T01:08:58;14.90;1.00
6662;DHT22;3367;48.714;8.994;2023-10-13T01:11:25;14.80;1.00
6662;DHT22;3367;48.714;8.994;2023-10-13T01:13:55;14.80;1.00
6662;DHT22;3367;48.714;8.994;2023-10-13T01:16:21;14.70;1.00
6662;DHT22;3367;48.714;8.994;2023-10-13T01:18:50;14.70;1.00
6662;DHT22;3367;48.714;8.994;2023-10-13T01:21:16;14.60;1.00
6662;DHT22;3367;48.714;8.994;2023-10-13T01:23:47;14.60;1.00
6662;DHT22;3367;48.714;8.994;2023-10-13T01:26:16;14.60;1.00
6662;DHT22;3367;48.714;8.994;2023-10-13T01:28:43;14.60;1.00
6662;DHT22;3367;48.714;8.994;2023-10-13T01:31:14;14.60;1.00
6662;DHT22;3367;48.714;8.994;2023-10-13T01:33:50;14.50;1.00
6662;DHT22;3367;48.714;8.994;2023-10-13T01:36:20;14.50;1.00
6662;DHT22;3367;48.714;8.994;2023-10-13T01:38:47;14.40;1.00
6662;DHT22;3367;48.714;8.994;2023-10-13T01:41:15;14.40;1.00
6662;DHT22;3367;48.714;8.994;2023-10-13T01:43:41;14.40;1.00
6662;DHT22;3367;48.714;8.994;2023-10-13T01:46:08;14.40;1.00
6662;DHT22;3367;48.714;8.994;2023-10-13T01:48:35;14.30;1.00
6662;DHT22;3367;48.714;8.994;2023-10-13T01:51:04;14.30;1.00
6662;DHT22;3367;48.714;8.994;2023-10-13T01:53:33;14.20;1.00
6662;DHT22;3367;48.714;8.994;2023-10-13T01:56:03;14.10;1.00
6662;DHT22;3367;48.714;8.994;2023-10-13T01:58:36;14.10;1.00
6662;DHT22;3367;48.714;8.994;2023-10-13T02:01:03;14.00;1.00
6662;DHT22;3367;48.714;8.994;2023-10-13T02:03:30;14.00;1.00
6662;DHT22;3367;48.714;8.994;2023-10-13T02:05:56;14.00;1.00
6662;DHT22;3367;48.714;8.994;2023-10-13T02:08:23;13.90;1.00
6662;DHT22;3367;48.714;8.994;2023-10-13T02:10:51;13.70;1.00
6662;DHT22;3367;48.714;8.994;2023-10-13T02:13:19;13.80;1.00
6662;DHT22;3367;48.714;8.994;2023-10-13T02:15:48;13.80;1.00
6662;DHT22;3367;48.714;8.994;2023-10-13T02:18:16;13.70;1.00
6662;DHT22;3367;48.714;8.994;2023-10-13T02:20:46;13.70;1.00
6662;DHT22;3367;48.714;8.994;2023-10-13T02:23:20;13.60;1.00
6662;DHT22;3367;48.714;8.994;2023-10-13T02:25:46;13.60;1.00
6662;DHT22;3367;48.714;8.994;2023-10-13T02:28:12;13.50;1.00
6662;DHT22;3367;48.714;8.994;2023-10-13T02:30:48;13.50;1.00
6662;DHT22;3367;48.714;8.994;2023-10-13T02:33:16;13.40;1.00
6662;DHT22;3367;48.714;8.994;2023-10-13T02:35:48;13.40;1.00
6662;DHT22;3367;48.714;8.994;2023-10-13T02:38:19;13.40;1.00
6662;DHT22;3367;48.714;8.994;2023-10-13T02:40:54;13.40;1.00
6662;DHT22;3367;48.714;8.994;2023-10-13T02:43:20;13.30;1.00
6662;DHT22;3367;48.714;8.994;2023-10-13T02:45:53;13.30;1.00
6662;DHT22;3367;48.714;8.994;2023-10-13T02:48:24;13.30;1.00
6662;DHT22;3367;48.714;8.994;2023-10-13T02:50:56;13.30;1.00
6662;DHT22;3367;48.714;8.994;2023-10-13T02:53:23;13.20;1.00
6662;DHT22;3367;48.714;8.994;2023-10-13T02:55:51;13.20;1.00
6662;DHT22;3367;48.714;8.994;2023-10-13T02:58:17;13.20;1.00
6662;DHT22;3367;48.714;8.994;2023-10-13T03:00:44;13.10;1.00
6662;DHT22;3367;48.714;8.994;2023-10-13T03:03:11;13.10;1.00
6662;DHT22;3367;48.714;8.994;2023-10-13T03:05:40;13.00;1.00
6662;DHT22;3367;48.714;8.994;2023-10-13T03:08:08;13.00;1.00
6662;DHT22;3367;48.714;8.994;2023-10-13T03:10:36;13.00;1.00
6662;DHT22;3367;48.714;8.994;2023-10-13T03:13:05;13.00;1.00
6662;DHT22;3367;48.714;8.994;2023-10-13T03:15:33;12.90;1.00
6662;DHT22;3367;48.714;8.994;2023-10-13T03:18:01;12.90;1.00
6662;DHT22;3367;48.714;8.994;2023-10-13T03:20:28;12.90;1.00
6662;DHT22;3367;48.714;8.994;2023-10-13T03:22:58;12.90;1.00
6662;DHT22;3367;48.714;8.994;2023-10-13T03:25:24;12.80;1.00
6662;DHT22;3367;48.714;8.994;2023-10-13T03:27:55;12.80;1.00
6662;DHT22;3367;48.714;8.994;2023-10-13T03:30:27;12.80;1.00
6662;DHT22;3367;48.714;8.994;2023-10-13T03:33:01;12.80;1.00
6662;DHT22;3367;48.714;8.994;2023-10-13T03:35:33;12.70;1.00
6662;DHT22;3367;48.714;8.994;2023-10-13T03:38:05;12.80;1.00
6662;DHT22;3367;48.714;8.994;2023-10-13T03:40:40;12.70;1.00
6662;DHT22;3367;48.714;8.994;2023-10-13T03:43:07;12.70;1.00
6662;DHT22;3367;48.714;8.994;2023-10-13T03:45:36;12.70;1.00
6662;DHT22;3367;48.714;8.994;2023-10-13T03:48:05;12.70;1.00
6662;DHT22;3367;48.714;8.994;2023-10-13T03:50:36;12.70;1.00
6662;DHT22;3367;48.714;8.994;2023-10-13T03:53:04;12.70;1.00
6662;DHT22;3367;48.714;8.994;2023-10-13T03:55:31;12.70;1.00
6662;DHT22;3367;48.714;8.994;2023-10-13T03:58:00;12.70;1.00
6662;DHT22;3367;48.714;8.994;2023-10-13T04:00:28;12.60;1.00
6662;DHT22;3367;48.714;8.994;2023-10-13T04:02:55;12.60;1.00
6662;DHT22;3367;48.714;8.994;2023-10-13T04:05:33;12.60;1.00
6662;DHT22;3367;48.714;8.994;2023-10-13T04:08:08;12.50;1.00
6662;DHT22;3367;48.714;8.994;2023-10-13T04:11:04;12.60;1.00
6662;DHT22;3367;48.714;8.994;2023-10-13T04:13:48;12.50;1.00
6662;DHT22;3367;48.714;8.994;2023-10-13T04:16:32;12.50;1.00
6662;DHT22;3367;48.714;8.994;2023-10-13T04:19:03;12.50;1.00
6662;DHT22;3367;48.714;8.994;2023-10-13T04:21:45;12.50;1.00
6662;DHT22;3367;48.714;8.994;2023-10-13T04:24:26;12.60;1.00
6662;DHT22;3367;48.714;8.994;2023-10-13T04:27:25;12.50;1.00
6662;DHT22;3367;48.714;8.994;2023-10-13T04:30:19;12.60;1.00
6662;DHT22;3367;48.714;8.994;2023-10-13T04:32:50;12.60;1.00
6662;DHT22;3367;48.714;8.994;2023-10-13T04:35:30;12.60;1.00
6662;DHT22;3367;48.714;8.994;2023-10-13T04:38:01;12.50;1.00
6662;DHT22;3367;48.714;8.994;2023-10-13T04:40:45;12.60;1.00
6662;DHT22;3367;48.714;8.994;2023-10-13T04:43:24;12.50;1.00
6662;DHT22;3367;48.714;8.994;2023-10-13T04:46:09;12.50;1.00
6662;DHT22;3367;48.714;8.994;2023-10-13T04:48:50;12.50;1.00
6662;DHT22;3367;48.714;8.994;2023-10-13T04:51:22;12.50;1.00
6662;DHT22;3367;48.714;8.994;2023-10-13T04:54:15;12.50;1.00
6662;DHT22;3367;48.714;8.994;2023-10-13T04:56:52;12.60;1.00
6662;DHT22;3367;48.714;8.994;2023-10-13T04:59:25;12.80;1.00
6662;DHT22;3367;48.714;8.994;2023-10-13T05:02:24;13.00;1.00
6662;DHT22;3367;48.714;8.994;2023-10-13T05:05:21;13.10;1.00
6662;DHT22;3367;48.714;8.994;2023-10-13T05:08:05;13.20;1.00
6662;DHT22;3367;48.714;8.994;2023-10-13T05:10:49;13.30;1.00
6662;DHT22;3367;48.714;8.994;2023-10-13T05:13:35;13.40;1.00
6662;DHT22;3367;48.714;8.994;2023-10-13T05:16:19;13.50;1.00
6662;DHT22;3367;48.714;8.994;2023-10-13T05:19:03;13.60;1.00
6662;DHT22;3367;48.714;8.994;2023-10-13T05:21:47;13.70;1.00
6662;DHT22;3367;48.714;8.994;2023-10-13T05:24:31;13.80;1.00
6662;DHT22;3367;48.714;8.994;2023-10-13T05:27:15;13.80;1.00
6662;DHT22;3367;48.714;8.994;2023-10-13T05:30:01;13.80;1.00
6662;DHT22;3367;48.714;8.994;2023-10-13T05:32:45;13.80;1.00
6662;DHT22;3367;48.714;8.994;2023-10-13T05:35:31;13.80;1.00
6662;DHT22;3367;48.714;8.994;2023-10-13T05:38:15;13.80;1.00
6662;DHT22;3367;48.714;8.994;2023-10-13T05:41:01;13.70;1.00
6662;DHT22;3367;48.714;8.994;2023-10-13T05:43:46;13.70;1.00
6662;DHT22;3367;48.714;8.994;2023-10-13T05:46:32;13.70;1.00
6662;DHT22;3367;48.714;8.994;2023-10-13T05:49:14;13.70;1.00
6662;DHT22;3367;48.714;8.994;2023-10-13T05:52:06;13.80;1.00
6662;DHT22;3367;48.714;8.994;2023-10-13T05:55:05;13.90;1.00
6662;DHT22;3367;48.714;8.994;2023-10-13T05:57:49;14.00;1.00
6662;DHT22;3367;48.714;8.994;2023-10-13T06:00:38;14.10;1.00
6662;DHT22;3367;48.714;8.994;2023-10-13T06:03:24;14.20;1.00
6662;DHT22;3367;48.714;8.994;2023-10-13T06:06:08;14.20;1.00
6662;DHT22;3367;48.714;8.994;2023-10-13T06:08:52;14.30;1.00
6662;DHT22;3367;48.714;8.994;2023-10-13T06:11:36;14.40;1.00
6662;DHT22;3367;48.714;8.994;2023-10-13T06:14:21;14.50;1.00
6662;DHT22;3367;48.714;8.994;2023-10-13T06:17:05;14.60;1.00
6662;DHT22;3367;48.714;8.994;2023-10-13T06:19:50;14.80;1.00
6662;DHT22;3367;48.714;8.994;2023-10-13T06:22:34;15.00;1.00
6662;DHT22;3367;48.714;8.994;2023-10-13T06:25:18;15.20;1.00
6662;DHT22;3367;48.714;8.994;2023-10-13T06:28:03;15.40;1.00
6662;DHT22;3367;48.714;8.994;2023-10-13T06:30:54;15.50;1.00
6662;DHT22;3367;48.714;8.994;2023-10-13T06:33:22;15.60;1.00
6662;DHT22;3367;48.714;8.994;2023-10-13T06:35:56;15.70;1.00
6662;DHT22;3367;48.714;8.994;2023-10-13T06:38:23;15.70;1.00
6662;DHT22;3367;48.714;8.994;2023-10-13T06:40:52;15.70;1.00
6662;DHT22;3367;48.714;8.994;2023-10-13T06:43:19;15.70;1.00
6662;DHT22;3367;48.714;8.994;2023-10-13T06:45:47;15.70;1.00
6662;DHT22;3367;48.714;8.994;2023-10-13T06:48:23;16.00;1.00
6662;DHT22;3367;48.714;8.994;2023-10-13T06:50:50;16.70;1.00
6662;DHT22;3367;48.714;8.994;2023-10-13T06:53:19;17.40;1.00
6662;DHT22;3367;48.714;8.994;2023-10-13T06:55:46;17.90;1.00
6662;DHT22;3367;48.714;8.994;2023-10-13T06:58:15;18.30;1.00
6662;DHT22;3367;48.714;8.994;2023-10-13T07:00:43;18.60;1.00
6662;DHT22;3367;48.714;8.994;2023-10-13T07:03:18;18.90;1.00
6662;DHT22;3367;48.714;8.994;2023-10-13T07:05:45;18.60;1.00
6662;DHT22;3367;48.714;8.994;2023-10-13T07:08:14;18.40;1.00
6662;DHT22;3367;48.714;8.994;2023-10-13T07:10:50;18.20;1.00
6662;DHT22;3367;48.714;8.994;2023-10-13T07:13:27;18.00;1.00
6662;DHT22;3367;48.714;8.994;2023-10-13T07:15:54;17.90;1.00
6662;DHT22;3367;48.714;8.994;2023-10-13T07:18:26;17.90;1.00
6662;DHT22;3367;48.714;8.994;2023-10-13T07:20:58;17.80;1.00
6662;DHT22;3367;48.714;8.994;2023-10-13T07:23:25;17.80;1.00
6662;DHT22;3367;48.714;8.994;2023-10-13T07:25:54;17.80;1.00
6662;DHT22;3367;48.714;8.994;2023-10-13T07:28:28;17.80;1.00
6662;DHT22;3367;48.714;8.994;2023-10-13T07:30:56;17.90;1.00
6662;DHT22;3367;48.714;8.994;2023-10-13T07:33:37;17.90;1.00
6662;DHT22;3367;48.714;8.994;2023-10-13T07:36:07;17.80;1.00
6662;DHT22;3367;48.714;8.994;2023-10-13T07:38:41;17.70;1.00
6662;DHT22;3367;48.714;8.994;2023-10-13T07:41:10;17.60;1.00
6662;DHT22;3367;48.714;8.994;2023-10-13T07:43:41;17.60;1.00
6662;DHT22;3367;48.714;8.994;2023-10-13T07:46:08;17.70;1.00
6662;DHT22;3367;48.714;8.994;2023-10-13T07:48:36;17.80;1.00
6662;DHT22;3367;48.714;8.994;2023-10-13T07:51:04;17.80;1.00
6662;DHT22;3367;48.714;8.994;2023-10-13T07:53:35;17.80;1.00
6662;DHT22;3367;48.714;8.994;2023-10-13T07:56:05;17.80;1.00
6662;DHT22;3367;48.714;8.994;2023-10-13T07:58:35;18.00;1.00
6662;DHT22;3367;48.714;8.994;2023-10-13T08:01:13;18.10;1.00
6662;DHT22;3367;48.714;8.994;2023-10-13T08:03:44;18.20;1.00
6662;DHT22;3367;48.714;8.994;2023-10-13T08:06:11;18.30;1.00
6662;DHT22;3367;48.714;8.994;2023-10-13T08:08:54;18.50;1.00
6662;DHT22;3367;48.714;8.994;2023-10-13T08:11:32;18.60;1.00
6662;DHT22;3367;48.714;8.994;2023-10-13T08:14:02;18.70;1.00
6662;DHT22;3367;48.714;8.994;2023-10-13T08:16:38;18.90;1.00
6662;DHT22;3367;48.714;8.994;2023-10-13T08:19:21;18.90;1.00
6662;DHT22;3367;48.714;8.994;2023-10-13T08:21:53;19.10;1.00
6662;DHT22;3367;48.714;8.994;2023-10-13T08:24:23;19.10;1.00
6662;DHT22;3367;48.714;8.994;2023-10-13T08:26:54;19.20;1.00
6662;DHT22;3367;48.714;8.994;2023-10-13T08:29:25;19.30;1.00
6662;DHT22;3367;48.714;8.994;2023-10-13T08:32:09;19.40;1.00
6662;DHT22;3367;48.714;8.994;2023-10-13T08:34:49;19.50;1.00
6662;DHT22;3367;48.714;8.994;2023-10-13T08:37:35;19.60;1.00
6662;DHT22;3367;48.714;8.994;2023-10-13T08:40:13;19.80;1.00
6662;DHT22;3367;48.714;8.994;2023-10-13T08:43:05;19.90;1.00
6662;DHT22;3367;48.714;8.994;2023-10-13T08:45:40;20.00;1.00
6662;DHT22;3367;48.714;8.994;2023-10-13T08:48:19;20.10;1.00
6662;DHT22;3367;48.714;8.994;2023-10-13T08:50:52;20.30;1.00
6662;DHT22;3367;48.714;8.994;2023-10-13T08:53:22;20.40;1.00
6662;DHT22;3367;48.714;8.994;2023-10-13T08:55:58;20.50;1.00
6662;DHT22;3367;48.714;8.994;2023-10-13T08:58:30;20.70;1.00
6662;DHT22;3367;48.714;8.994;2023-10-13T09:01:13;20.70;1.00
6662;DHT22;3367;48.714;8.994;2023-10-13T09:03:59;20.90;1.00
6662;DHT22;3367;48.714;8.994;2023-10-13T09:06:47;20.90;1.00
6662;DHT22;3367;48.714;8.994;2023-10-13T09:09:26;21.00;1.00
6662;DHT22;3367;48.714;8.994;2023-10-13T09:12:01;21.10;1.00
6662;DHT22;3367;48.714;8.994;2023-10-13T09:14:36;21.10;1.00
6662;DHT22;3367;48.714;8.994;2023-10-13T09:17:06;21.20;1.00
6662;DHT22;3367;48.714;8.994;2023-10-13T09:19:47;21.20;1.00
6662;DHT22;3367;48.714;8.994;2023-10-13T09:22:21;21.30;1.00
6662;DHT22;3367;48.714;8.994;2023-10-13T09:25:01;21.40;1.00
6662;DHT22;3367;48.714;8.994;2023-10-13T09:27:29;21.60;1.00
6662;DHT22;3367;48.714;8.994;2023-10-13T09:29:59;21.70;1.00
6662;DHT22;3367;48.714;8.994;2023-10-13T09:32:36;21.80;1.00
6662;DHT22;3367;48.714;8.994;2023-10-13T09:35:16;21.90;1.00
6662;DHT22;3367;48.714;8.994;2023-10-13T09:37:44;22.00;1.00
6662;DHT22;3367;48.714;8.994;2023-10-13T09:40:16;21.90;1.00
6662;DHT22;3367;48.714;8.994;2023-10-13T09:42:52;21.90;1.00
6662;DHT22;3367;48.714;8.994;2023-10-13T09:45:24;22.00;1.00
6662;DHT22;3367;48.714;8.994;2023-10-13T09:48:02;22.10;1.00
6662;DHT22;3367;48.714;8.994;2023-10-13T09:50:36;22.20;1.00
6662;DHT22;3367;48.714;8.994;2023-10-13T09:53:06;22.20;1.00
6662;DHT22;3367;48.714;8.994;2023-10-13T09:55:36;22.30;1.00
6662;DHT22;3367;48.714;8.994;2023-10-13T09:58:07;22.20;1.00
6662;DHT22;3367;48.714;8.994;2023-10-13T10:00:40;22.40;1.00
6662;DHT22;3367;48.714;8.994;2023-10-13T10:03:15;22.50;1.00
6662;DHT22;3367;48.714;8.994;2023-10-13T10:05:55;22.70;1.00
6662;DHT22;3367;48.714;8.994;2023-10-13T10:08:29;22.80;1.00
6662;DHT22;3367;48.714;8.994;2023-10-13T10:11:04;23.00;1.00
6662;DHT22;3367;48.714;8.994;2023-10-13T10:13:37;23.10;1.00
6662;DHT22;3367;48.714;8.994;2023-10-13T10:16:10;23.20;1.00
6662;DHT22;3367;48.714;8.994;2023-10-13T10:18:41;23.40;1.00
6662;DHT22;3367;48.714;8.994;2023-10-13T10:21:08;23.70;1.00
6662;DHT22;3367;48.714;8.994;2023-10-13T10:23:36;23.80;1.00
6662;DHT22;3367;48.714;8.994;2023-10-13T10:26:11;23.80;1.00
6662;DHT22;3367;48.714;8.994;2023-10-13T10:28:40;23.90;1.00
6662;DHT22;3367;48.714;8.994;2023-10-13T10:31:07;23.90;1.00
6662;DHT22;3367;48.714;8.994;2023-10-13T10:33:38;23.80;1.00
6662;DHT22;3367;48.714;8.994;2023-10-13T10:36:07;23.80;1.00
6662;DHT22;3367;48.714;8.994;2023-10-13T10:38:51;23.70;1.00
6662;DHT22;3367;48.714;8.994;2023-10-13T10:41:25;23.80;1.00
6662;DHT22;3367;48.714;8.994;2023-10-13T10:43:55;23.80;1.00
6662;DHT22;3367;48.714;8.994;2023-10-13T10:46:26;24.00;1.00
6662;DHT22;3367;48.714;8.994;2023-10-13T10:48:53;24.20;1.00
6662;DHT22;3367;48.714;8.994;2023-10-13T10:51:28;24.20;1.00
6662;DHT22;3367;48.714;8.994;2023-10-13T10:53:57;24.20;1.00
6662;DHT22;3367;48.714;8.994;2023-10-13T10:56:37;24.00;1.00
6662;DHT22;3367;48.714;8.994;2023-10-13T10:59:05;24.10;1.00
6662;DHT22;3367;48.714;8.994;2023-10-13T11:01:43;24.00;1.00
6662;DHT22;3367;48.714;8.994;2023-10-13T11:04:17;24.10;1.00
6662;DHT22;3367;48.714;8.994;2023-10-13T11:06:52;24.30;1.00
6662;DHT22;3367;48.714;8.994;2023-10-13T11:09:24;24.50;1.00
6662;DHT22;3367;48.714;8.994;2023-10-13T11:12:08;24.50;1.00
6662;DHT22;3367;48.714;8.994;2023-10-13T11:14:40;24.60;1.00
6662;DHT22;3367;48.714;8.994;2023-10-13T11:17:07;24.70;1.00
6662;DHT22;3367;48.714;8.994;2023-10-13T11:19:44;24.70;1.00
6662;DHT22;3367;48.714;8.994;2023-10-13T11:22:12;24.80;1.00
6662;DHT22;3367;48.714;8.994;2023-10-13T11:24:55;24.80;1.00
6662;DHT22;3367;48.714;8.994;2023-10-13T11:27:28;24.90;1.00
6662;DHT22;3367;48.714;8.994;2023-10-13T11:30:10;24.90;1.00
6662;DHT22;3367;48.714;8.994;2023-10-13T11:32:38;24.90;1.00
6662;DHT22;3367;48.714;8.994;2023-10-13T11:35:07;24.80;1.00
6662;DHT22;3367;48.714;8.994;2023-10-13T11:37:38;24.80;1.00
6662;DHT22;3367;48.714;8.994;2023-10-13T11:40:09;24.90;1.00
6662;DHT22;3367;48.714;8.994;2023-10-13T11:42:38;25.00;1.00
6662;DHT22;3367;48.714;8.994;2023-10-13T11:45:09;25.10;1.00
6662;DHT22;3367;48.714;8.994;2023-10-13T11:47:54;25.10;1.00
6662;DHT22;3367;48.714;8.994;2023-10-13T11:50:25;25.30;1.00
6662;DHT22;3367;48.714;8.994;2023-10-13T11:52:59;25.30;1.00
6662;DHT22;3367;48.714;8.994;2023-10-13T11:55:26;25.20;1.00
6662;DHT22;3367;48.714;8.994;2023-10-13T11:57:53;25.40;1.00
6662;DHT22;3367;48.714;8.994;2023-10-13T12:00:24;25.50;1.00
6662;DHT22;3367;48.714;8.994;2023-10-13T12:03:12;25.40;1.00
6662;DHT22;3367;48.714;8.994;2023-10-13T12:05:56;25.30;1.00
6662;DHT22;3367;48.714;8.994;2023-10-13T12:08:45;25.30;1.00
6662;DHT22;3367;48.714;8.994;2023-10-13T12:11:17;25.30;1.00
6662;DHT22;3367;48.714;8.994;2023-10-13T12:14:04;25.40;1.00
6662;DHT22;3367;48.714;8.994;2023-10-13T12:16:42;25.50;1.00
6662;DHT22;3367;48.714;8.994;2023-10-13T12:19:14;25.40;1.00
6662;DHT22;3367;48.714;8.994;2023-10-13T12:21:42;25.40;1.00
6662;DHT22;3367;48.714;8.994;2023-10-13T12:24:11;25.60;1.00
6662;DHT22;3367;48.714;8.994;2023-10-13T12:26:48;25.60;1.00
6662;DHT22;3367;48.714;8.994;2023-10-13T12:29:22;25.70;1.00
6662;DHT22;3367;48.714;8.994;2023-10-13T12:31:53;25.80;1.00
6662;DHT22;3367;48.714;8.994;2023-10-13T12:34:34;25.90;1.00
6662;DHT22;3367;48.714;8.994;2023-10-13T12:37:23;25.80;1.00
6662;DHT22;3367;48.714;8.994;2023-10-13T12:40:08;25.90;1.00
6662;DHT22;3367;48.714;8.994;2023-10-13T12:42:53;25.90;1.00
6662;DHT22;3367;48.714;8.994;2023-10-13T12:45:41;26.00;1.00
6662;DHT22;3367;48.714;8.994;2023-10-13T12:48:37;26.10;1.00
6662;DHT22;3367;48.714;8.994;2023-10-13T12:51:29;26.10;1.00
6662;DHT22;3367;48.714;8.994;2023-10-13T12:54:16;26.20;1.00
6662;DHT22;3367;48.714;8.994;2023-10-13T12:56:47;26.40;1.00
6662;DHT22;3367;48.714;8.994;2023-10-13T12:59:13;26.40;1.00
6662;DHT22;3367;48.714;8.994;2023-10-13T13:01:41;26.40;1.00
6662;DHT22;3367;48.714;8.994;2023-10-13T13:04:09;26.40;1.00
6662;DHT22;3367;48.714;8.994;2023-10-13T13:06:38;26.50;1.00
6662;DHT22;3367;48.714;8.994;2023-10-13T13:09:06;26.50;1.00
6662;DHT22;3367;48.714;8.994;2023-10-13T13:11:35;26.60;1.00
6662;DHT22;3367;48.714;8.994;2023-10-13T13:14:06;26.50;1.00
6662;DHT22;3367;48.714;8.994;2023-10-13T13:16:35;26.50;1.00
6662;DHT22;3367;48.714;8.994;2023-10-13T13:19:04;26.50;1.00
6662;DHT22;3367;48.714;8.994;2023-10-13T13:21:36;26.50;1.00
6662;DHT22;3367;48.714;8.994;2023-10-13T13:24:04;26.50;1.00
6662;DHT22;3367;48.714;8.994;2023-10-13T13:26:36;26.50;1.00
6662;DHT22;3367;48.714;8.994;2023-10-13T13:29:07;26.60;1.00
6662;DHT22;3367;48.714;8.994;2023-10-13T13:31:35;26.50;1.00
6662;DHT22;3367;48.714;8.994;2023-10-13T13:34:06;26.40;1.00
6662;DHT22;3367;48.714;8.994;2023-10-13T13:36:34;26.50;1.00
6662;DHT22;3367;48.714;8.994;2023-10-13T13:39:01;26.60;1.00
6662;DHT22;3367;48.714;8.994;2023-10-13T13:41:29;26.50;1.00
6662;DHT22;3367;48.714;8.994;2023-10-13T13:43:58;26.60;1.00
6662;DHT22;3367;48.714;8.994;2023-10-13T13:46:39;26.70;1.00
6662;DHT22;3367;48.714;8.994;2023-10-13T13:49:09;26.60;1.00
6662;DHT22;3367;48.714;8.994;2023-10-13T13:51:44;26.60;1.00
6662;DHT22;3367;48.714;8.994;2023-10-13T13:54:18;26.60;1.00
6662;DHT22;3367;48.714;8.994;2023-10-13T13:56:45;26.50;1.00
6662;DHT22;3367;48.714;8.994;2023-10-13T14:01:41;26.30;1.00
6662;DHT22;3367;48.714;8.994;2023-10-13T14:04:10;26.30;1.00
6662;DHT22;3367;48.714;8.994;2023-10-13T14:06:36;26.40;1.00
6662;DHT22;3367;48.714;8.994;2023-10-13T14:09:05;26.40;1.00
6662;DHT22;3367;48.714;8.994;2023-10-13T14:11:40;26.30;1.00
6662;DHT22;3367;48.714;8.994;2023-10-13T14:14:24;26.30;1.00
6662;DHT22;3367;48.714;8.994;2023-10-13T14:17:00;26.20;1.00
6662;DHT22;3367;48.714;8.994;2023-10-13T14:19:33;26.20;1.00
6662;DHT22;3367;48.714;8.994;2023-10-13T14:22:01;26.20;1.00
6662;DHT22;3367;48.714;8.994;2023-10-13T14:24:32;26.00;1.00
6662;DHT22;3367;48.714;8.994;2023-10-13T14:27:01;26.10;1.00
6662;DHT22;3367;48.714;8.994;2023-10-13T14:29:34;26.20;1.00
6662;DHT22;3367;48.714;8.994;2023-10-13T14:32:07;26.10;1.00
6662;DHT22;3367;48.714;8.994;2023-10-13T14:34:38;26.10;1.00
6662;DHT22;3367;48.714;8.994;2023-10-13T14:37:05;26.10;1.00
6662;DHT22;3367;48.714;8.994;2023-10-13T14:39:32;25.90;1.00
6662;DHT22;3367;48.714;8.994;2023-10-13T14:42:00;26.00;1.00
6662;DHT22;3367;48.714;8.994;2023-10-13T14:44:28;25.90;1.00
6662;DHT22;3367;48.714;8.994;2023-10-13T14:46:55;25.90;1.00
6662;DHT22;3367;48.714;8.994;2023-10-13T14:49:23;25.90;1.00
6662;DHT22;3367;48.714;8.994;2023-10-13T14:51:50;25.90;1.00
6662;DHT22;3367;48.714;8.994;2023-10-13T14:54:16;25.80;1.00
6662;DHT22;3367;48.714;8.994;2023-10-13T14:56:50;25.90;1.00
6662;DHT22;3367;48.714;8.994;2023-10-13T14:59:20;25.80;1.00
6662;DHT22;3367;48.714;8.994;2023-10-13T15:01:47;25.70;1.00
6662;DHT22;3367;48.714;8.994;2023-10-13T15:04:20;25.70;1.00
6662;DHT22;3367;48.714;8.994;2023-10-13T15:06:51;25.70;1.00
6662;DHT22;3367;48.714;8.994;2023-10-13T15:09:18;25.60;1.00
6662;DHT22;3367;48.714;8.994;2023-10-13T15:11:51;25.60;1.00
6662;DHT22;3367;48.714;8.994;2023-10-13T15:14:22;25.60;1.00
6662;DHT22;3367;48.714;8.994;2023-10-13T15:16:49;25.50;1.00
6662;DHT22;3367;48.714;8.994;2023-10-13T15:19:17;25.40;1.00
6662;DHT22;3367;48.714;8.994;2023-10-13T15:21:47;25.30;1.00
6662;DHT22;3367;48.714;8.994;2023-10-13T15:24:17;25.30;1.00
6662;DHT22;3367;48.714;8.994;2023-10-13T15:26:48;25.20;1.00
6662;DHT22;3367;48.714;8.994;2023-10-13T15:29:18;25.20;1.00
6662;DHT22;3367;48.714;8.994;2023-10-13T15:31:53;25.20;1.00
6662;DHT22;3367;48.714;8.994;2023-10-13T15:34:36;25.10;1.00
6662;DHT22;3367;48.714;8.994;2023-10-13T15:37:04;25.00;1.00
6662;DHT22;3367;48.714;8.994;2023-10-13T15:39:32;25.00;1.00
6662;DHT22;3367;48.714;8.994;2023-10-13T15:41:59;24.90;1.00
6662;DHT22;3367;48.714;8.994;2023-10-13T15:44:28;24.90;1.00
6662;DHT22;3367;48.714;8.994;2023-10-13T15:46:56;24.70;1.00
6662;DHT22;3367;48.714;8.994;2023-10-13T15:49:27;24.60;1.00
6662;DHT22;3367;48.714;8.994;2023-10-13T15:51:55;24.50;1.00
6662;DHT22;3367;48.714;8.994;2023-10-13T15:54:22;24.40;1.00
6662;DHT22;3367;48.714;8.994;2023-10-13T15:56:51;24.40;1.00
6662;DHT22;3367;48.714;8.994;2023-10-13T15:59:18;24.30;1.00
6662;DHT22;3367;48.714;8.994;2023-10-13T16:01:45;24.20;1.00
6662;DHT22;3367;48.714;8.994;2023-10-13T16:04:16;24.20;1.00
6662;DHT22;3367;48.714;8.994;2023-10-13T16:06:46;24.10;1.00
6662;DHT22;3367;48.714;8.994;2023-10-13T16:09:24;24.00;1.00
6662;DHT22;3367;48.714;8.994;2023-10-13T16:11:54;24.00;1.00
6662;DHT22;3367;48.714;8.994;2023-10-13T16:14:22;23.90;1.00
6662;DHT22;3367;48.714;8.994;2023-10-13T16:16:49;23.80;1.00
6662;DHT22;3367;48.714;8.994;2023-10-13T16:19:21;23.70;1.00
6662;DHT22;3367;48.714;8.994;2023-10-13T16:21:49;23.60;1.00
6662;DHT22;3367;48.714;8.994;2023-10-13T16:24:19;23.50;1.00
6662;DHT22;3367;48.714;8.994;2023-10-13T16:26:46;23.40;1.00
6662;DHT22;3367;48.714;8.994;2023-10-13T16:29:21;23.30;1.00
6662;DHT22;3367;48.714;8.994;2023-10-13T16:31:48;23.20;1.00
6662;DHT22;3367;48.714;8.994;2023-10-13T16:34:16;23.10;1.00
6662;DHT22;3367;48.714;8.994;2023-10-13T16:36:42;23.00;1.00
6662;DHT22;3367;48.714;8.994;2023-10-13T16:39:09;22.80;1.00
6662;DHT22;3367;48.714;8.994;2023-10-13T16:41:36;22.80;1.00
6662;DHT22;3367;48.714;8.994;2023-10-13T16:44:03;22.80;1.00
6662;DHT22;3367;48.714;8.994;2023-10-13T16:46:36;22.80;1.00
6662;DHT22;3367;48.714;8.994;2023-10-13T16:49:05;22.70;1.00
6662;DHT22;3367;48.714;8.994;2023-10-13T16:51:32;22.60;1.00
6662;DHT22;3367;48.714;8.994;2023-10-13T16:53:59;22.50;1.00
6662;DHT22;3367;48.714;8.994;2023-10-13T16:56:26;22.40;1.00
6662;DHT22;3367;48.714;8.994;2023-10-13T16:58:56;22.30;1.00